createdAt,value
2018-08-16T00:00:01.091Z,18.07
2018-08-16T00:00:05.295Z,18.07
2018-08-16T00:00:09.385Z,18.06
2018-08-16T00:00:13.581Z,18.06
2018-08-16T00:00:17.694Z,18.06
2018-08-16T00:00:21.883Z,18.06
2018-08-16T00:00:26.185Z,18.05
2018-08-16T00:00:30.495Z,18.05
2018-08-16T00:00:34.807Z,18.05
2018-08-16T00:00:39.000Z,18.05
2018-08-16T00:00:43.087Z,18.05
2018-08-16T00:00:47.398Z,18.05
2018-08-16T00:00:51.606Z,18.05
2018-08-16T00:00:55.801Z,18.06
2018-08-16T00:01:00.000Z,18.04
2018-08-16T00:01:04.097Z,18.05
2018-08-16T00:01:08.398Z,18.05
2018-08-16T00:01:12.699Z,18.04
2018-08-16T00:01:16.896Z,18.05
2018-08-16T00:01:21.201Z,18.05
2018-08-16T00:01:25.505Z,18.04
2018-08-16T00:01:29.608Z,18.04
2018-08-16T00:01:33.913Z,18.04
2018-08-16T00:01:38.002Z,18.04
2018-08-16T00:01:42.202Z,18.05
2018-08-16T00:01:46.505Z,18.04
2018-08-16T00:01:50.812Z,18.04
2018-08-16T00:01:54.899Z,18.04
2018-08-16T00:01:59.201Z,18.04
2018-08-16T00:02:03.292Z,18.04
2018-08-16T00:02:07.596Z,18.03
2018-08-16T00:02:11.793Z,18.04
2018-08-16T00:02:15.999Z,18.03
2018-08-16T00:02:20.205Z,18.03
2018-08-16T00:02:24.397Z,18.03
2018-08-16T00:02:28.600Z,18.03
2018-08-16T00:02:32.902Z,18.04
2018-08-16T00:02:37.095Z,18.03
2018-08-16T00:02:41.189Z,18.03
2018-08-16T00:02:45.383Z,18.03
2018-08-16T00:02:49.470Z,18.03
2018-08-16T00:02:53.691Z,18.03
2018-08-16T00:02:57.892Z,18.02
2018-08-16T00:03:02.199Z,18.03
2018-08-16T00:03:06.297Z,18.02
2018-08-16T00:03:10.608Z,18.03
2018-08-16T00:03:14.813Z,18.03
2018-08-16T00:03:18.904Z,18.02
2018-08-16T00:03:23.114Z,18.03
2018-08-16T00:03:27.425Z,18.02
2018-08-16T00:03:31.629Z,18.02
2018-08-16T00:03:35.732Z,18.02
2018-08-16T00:03:39.936Z,18.03
2018-08-16T00:03:44.243Z,18.02
2018-08-16T00:03:48.547Z,18.02
2018-08-16T00:03:52.852Z,18.02
2018-08-16T00:03:57.053Z,18.01
2018-08-16T00:04:01.247Z,18.02
2018-08-16T00:04:05.340Z,18.02
2018-08-16T00:04:09.642Z,18.02
2018-08-16T00:04:13.845Z,18.02
2018-08-16T00:04:18.147Z,18.02
2018-08-16T00:04:22.448Z,18.02
2018-08-16T00:04:26.540Z,18.02
2018-08-16T00:04:30.743Z,18.01
2018-08-16T00:04:34.843Z,18.01
2018-08-16T00:04:39.046Z,18
2018-08-16T00:04:43.246Z,18.01
2018-08-16T00:04:47.332Z,18.02
2018-08-16T00:04:51.535Z,18.01
2018-08-16T00:04:55.728Z,18.01
2018-08-16T00:04:59.924Z,18.01
2018-08-16T00:05:04.166Z,18
2018-08-16T00:05:08.154Z,18
2018-08-16T00:05:12.353Z,18.01
2018-08-16T00:05:16.656Z,17.98
2018-08-16T00:05:20.855Z,18.01
2018-08-16T00:05:24.944Z,17.99
2018-08-16T00:05:29.144Z,17.99
2018-08-16T00:05:33.454Z,17.99
2018-08-16T00:05:37.654Z,17.98
2018-08-16T00:05:41.956Z,17.99
2018-08-16T00:05:46.153Z,17.99
2018-08-16T00:05:50.467Z,17.98
2018-08-16T00:05:54.669Z,17.99
2018-08-16T00:05:58.980Z,17.98
2018-08-16T00:06:02.857Z,17.98
2018-08-16T00:06:06.946Z,17.97
2018-08-16T00:06:11.152Z,17.98
2018-08-16T00:06:15.243Z,17.98
2018-08-16T00:06:19.332Z,17.97
2018-08-16T00:06:23.639Z,17.97
2018-08-16T00:06:27.743Z,17.96
2018-08-16T00:06:31.937Z,17.97
2018-08-16T00:06:36.132Z,17.95
2018-08-16T00:06:40.114Z,17.96
2018-08-16T00:06:44.415Z,17.96
2018-08-16T00:06:48.609Z,17.96
2018-08-16T00:06:52.830Z,17.95
2018-08-16T00:06:56.924Z,17.95
2018-08-16T00:07:01.127Z,17.95
2018-08-16T00:07:05.215Z,17.95
2018-08-16T00:07:09.527Z,17.94
2018-08-16T00:07:13.616Z,17.94
2018-08-16T00:07:17.717Z,17.94
2018-08-16T00:07:21.918Z,17.95
2018-08-16T00:07:26.116Z,17.94
2018-08-16T00:07:30.203Z,17.93
2018-08-16T00:07:34.408Z,17.93
2018-08-16T00:07:38.720Z,17.92
2018-08-16T00:07:43.032Z,17.93
2018-08-16T00:07:47.245Z,17.92
2018-08-16T00:07:51.445Z,17.91
2018-08-16T00:07:55.641Z,17.91
2018-08-16T00:07:59.849Z,17.9
2018-08-16T00:08:03.952Z,17.91
2018-08-16T00:08:08.265Z,17.9
2018-08-16T00:08:12.468Z,17.9
2018-08-16T00:08:16.674Z,17.9
2018-08-16T00:08:20.977Z,17.89
2018-08-16T00:08:25.288Z,17.89
2018-08-16T00:08:29.484Z,17.89
2018-08-16T00:08:33.684Z,17.89
2018-08-16T00:08:37.878Z,17.88
2018-08-16T00:08:42.075Z,17.88
2018-08-16T00:08:46.171Z,17.87
2018-08-16T00:08:50.382Z,17.87
2018-08-16T00:08:54.581Z,17.87
2018-08-16T00:08:58.779Z,17.86
2018-08-16T00:09:02.983Z,17.85
2018-08-16T00:09:07.073Z,17.85
2018-08-16T00:09:11.394Z,17.85
2018-08-16T00:09:15.593Z,17.84
2018-08-16T00:09:19.473Z,17.84
2018-08-16T00:09:23.774Z,17.83
2018-08-16T00:09:27.774Z,17.83
2018-08-16T00:09:31.977Z,17.82
2018-08-16T00:09:36.176Z,17.83
2018-08-16T00:09:40.377Z,17.82
2018-08-16T00:09:44.681Z,17.81
2018-08-16T00:09:48.983Z,17.8
2018-08-16T00:09:53.294Z,17.81
2018-08-16T00:09:57.499Z,17.79
2018-08-16T00:10:01.908Z,17.8
2018-08-16T00:10:06.011Z,17.8
2018-08-16T00:10:09.991Z,17.8
2018-08-16T00:10:14.302Z,17.79
2018-08-16T00:10:18.621Z,17.78
2018-08-16T00:10:22.716Z,17.78
2018-08-16T00:10:27.018Z,17.78
2018-08-16T00:10:31.226Z,17.78
2018-08-16T00:10:35.543Z,17.77
2018-08-16T00:10:39.855Z,17.77
2018-08-16T00:10:43.843Z,17.76
2018-08-16T00:10:48.040Z,17.76
2018-08-16T00:10:52.236Z,17.74
2018-08-16T00:10:56.542Z,17.75
2018-08-16T00:11:00.844Z,17.74
2018-08-16T00:11:05.052Z,17.74
2018-08-16T00:11:09.247Z,17.73
2018-08-16T00:11:13.448Z,17.73
2018-08-16T00:11:17.538Z,17.73
2018-08-16T00:11:21.631Z,17.72
2018-08-16T00:11:25.717Z,17.72
2018-08-16T00:11:30.024Z,17.71
2018-08-16T00:11:34.326Z,17.7
2018-08-16T00:11:38.520Z,17.71
2018-08-16T00:11:42.828Z,17.69
2018-08-16T00:11:47.023Z,17.69
2018-08-16T00:11:51.335Z,17.68
2018-08-16T00:11:55.113Z,17.68
2018-08-16T00:11:59.410Z,17.67
2018-08-16T00:12:03.512Z,17.67
2018-08-16T00:12:07.705Z,17.67
2018-08-16T00:12:11.904Z,17.67
2018-08-16T00:12:16.110Z,17.66
2018-08-16T00:12:20.311Z,17.65
2018-08-16T00:12:24.504Z,17.64
2018-08-16T00:12:28.601Z,17.65
2018-08-16T00:12:32.815Z,17.64
2018-08-16T00:12:37.008Z,17.64
2018-08-16T00:12:41.204Z,17.63
2018-08-16T00:12:45.296Z,17.62
2018-08-16T00:12:49.593Z,17.62
2018-08-16T00:12:53.897Z,17.62
2018-08-16T00:12:58.252Z,17.62
2018-08-16T00:13:02.557Z,17.61
2018-08-16T00:13:06.655Z,17.6
2018-08-16T00:13:10.855Z,17.6
2018-08-16T00:13:14.837Z,17.59
2018-08-16T00:13:19.039Z,17.6
2018-08-16T00:13:23.173Z,17.59
2018-08-16T00:13:27.162Z,17.6
2018-08-16T00:13:31.469Z,17.59
2018-08-16T00:13:35.782Z,17.58
2018-08-16T00:13:39.978Z,17.58
2018-08-16T00:13:44.280Z,17.57
2018-08-16T00:13:48.479Z,17.56
2018-08-16T00:13:52.787Z,17.56
2018-08-16T00:13:56.882Z,17.56
2018-08-16T00:14:01.190Z,17.55
2018-08-16T00:14:05.291Z,17.55
2018-08-16T00:14:09.599Z,17.55
2018-08-16T00:14:13.838Z,17.55
2018-08-16T00:14:18.042Z,17.53
2018-08-16T00:14:22.350Z,17.52
2018-08-16T00:14:26.443Z,17.53
2018-08-16T00:14:30.749Z,17.52
2018-08-16T00:14:34.842Z,17.52
2018-08-16T00:14:39.157Z,17.51
2018-08-16T00:14:43.150Z,17.52
2018-08-16T00:14:47.343Z,17.5
2018-08-16T00:14:51.541Z,17.5
2018-08-16T00:14:55.737Z,17.49
2018-08-16T00:14:59.933Z,17.5
2018-08-16T00:15:03.811Z,17.48
2018-08-16T00:15:08.110Z,17.48
2018-08-16T00:15:12.417Z,17.49
2018-08-16T00:15:16.620Z,17.47
2018-08-16T00:15:20.919Z,17.47
2018-08-16T00:15:25.223Z,17.46
2018-08-16T00:15:29.533Z,17.46
2018-08-16T00:15:33.621Z,17.46
2018-08-16T00:15:37.609Z,17.44
2018-08-16T00:15:41.814Z,17.45
2018-08-16T00:15:46.012Z,17.44
2018-08-16T00:15:50.208Z,17.44
2018-08-16T00:15:54.296Z,17.44
2018-08-16T00:15:58.511Z,17.44
2018-08-16T00:16:02.705Z,17.42
2018-08-16T00:16:06.905Z,17.43
2018-08-16T00:16:10.890Z,17.42
2018-08-16T00:16:14.977Z,17.42
2018-08-16T00:16:19.177Z,17.41
2018-08-16T00:16:23.488Z,17.41
2018-08-16T00:16:27.691Z,17.41
2018-08-16T00:16:32.005Z,17.41
2018-08-16T00:16:36.317Z,17.4
2018-08-16T00:16:40.527Z,17.39
2018-08-16T00:16:44.834Z,17.4
2018-08-16T00:16:49.145Z,17.4
2018-08-16T00:16:53.342Z,17.39
2018-08-16T00:16:57.539Z,17.39
2018-08-16T00:17:01.849Z,17.38
2018-08-16T00:17:06.044Z,17.38
2018-08-16T00:17:10.349Z,17.37
2018-08-16T00:17:14.548Z,17.37
2018-08-16T00:17:18.857Z,17.36
2018-08-16T00:17:23.068Z,17.37
2018-08-16T00:17:27.269Z,17.36
2018-08-16T00:17:31.361Z,17.36
2018-08-16T00:17:35.563Z,17.35
2018-08-16T00:17:39.770Z,17.35
2018-08-16T00:17:44.081Z,17.35
2018-08-16T00:17:48.331Z,17.34
2018-08-16T00:17:52.637Z,17.34
2018-08-16T00:17:56.729Z,17.34
2018-08-16T00:18:00.934Z,17.34
2018-08-16T00:18:05.147Z,17.33
2018-08-16T00:18:09.244Z,17.33
2018-08-16T00:18:13.447Z,17.33
2018-08-16T00:18:17.541Z,17.32
2018-08-16T00:18:21.629Z,17.32
2018-08-16T00:18:25.830Z,17.32
2018-08-16T00:18:30.019Z,17.32
2018-08-16T00:18:34.323Z,17.31
2018-08-16T00:18:38.517Z,17.31
2018-08-16T00:18:42.501Z,17.31
2018-08-16T00:18:46.742Z,17.31
2018-08-16T00:18:51.056Z,17.31
2018-08-16T00:18:55.259Z,17.3
2018-08-16T00:18:59.459Z,17.3
2018-08-16T00:19:03.663Z,17.31
2018-08-16T00:19:07.862Z,17.3
2018-08-16T00:19:12.179Z,17.3
2018-08-16T00:19:16.376Z,17.29
2018-08-16T00:19:20.585Z,17.29
2018-08-16T00:19:24.782Z,17.29
2018-08-16T00:19:28.898Z,17.29
2018-08-16T00:19:33.199Z,17.3
2018-08-16T00:19:37.517Z,17.29
2018-08-16T00:19:41.717Z,17.28
2018-08-16T00:19:45.909Z,17.28
2018-08-16T00:19:50.003Z,17.29
2018-08-16T00:19:54.311Z,17.28
2018-08-16T00:19:58.544Z,17.28
2018-08-16T00:20:02.844Z,17.28
2018-08-16T00:20:06.836Z,17.28
2018-08-16T00:20:11.039Z,17.28
2018-08-16T00:20:15.339Z,17.28
2018-08-16T00:20:19.428Z,17.27
2018-08-16T00:20:23.409Z,17.28
2018-08-16T00:20:27.498Z,17.27
2018-08-16T00:20:31.704Z,17.27
2018-08-16T00:20:35.895Z,17.26
2018-08-16T00:20:40.092Z,17.27
2018-08-16T00:20:44.450Z,17.27
2018-08-16T00:20:48.646Z,17.27
2018-08-16T00:20:52.844Z,17.27
2018-08-16T00:20:56.937Z,17.27
2018-08-16T00:21:01.030Z,17.27
2018-08-16T00:21:05.236Z,17.26
2018-08-16T00:21:09.448Z,17.26
2018-08-16T00:21:13.654Z,17.26
2018-08-16T00:21:17.870Z,17.26
2018-08-16T00:21:21.956Z,17.26
2018-08-16T00:21:26.052Z,17.26
2018-08-16T00:21:30.039Z,17.26
2018-08-16T00:21:34.244Z,17.25
2018-08-16T00:21:38.335Z,17.26
2018-08-16T00:21:42.426Z,17.25
2018-08-16T00:21:46.730Z,17.26
2018-08-16T00:21:51.039Z,17.26
2018-08-16T00:21:55.128Z,17.25
2018-08-16T00:21:59.330Z,17.25
2018-08-16T00:22:03.313Z,17.25
2018-08-16T00:22:07.616Z,17.25
2018-08-16T00:22:11.916Z,17.25
2018-08-16T00:22:16.007Z,17.25
2018-08-16T00:22:20.097Z,17.25
2018-08-16T00:22:24.300Z,17.25
2018-08-16T00:22:28.284Z,17.25
2018-08-16T00:22:32.375Z,17.25
2018-08-16T00:22:36.471Z,17.25
2018-08-16T00:22:40.780Z,17.24
2018-08-16T00:22:45.018Z,17.24
2018-08-16T00:22:49.326Z,17.24
2018-08-16T00:22:53.363Z,17.25
2018-08-16T00:22:57.572Z,17.24
2018-08-16T00:23:01.932Z,17.24
2018-08-16T00:23:06.245Z,17.24
2018-08-16T00:23:10.442Z,17.24
2018-08-16T00:23:14.746Z,17.24
2018-08-16T00:23:19.061Z,17.23
2018-08-16T00:23:23.370Z,17.24
2018-08-16T00:23:27.490Z,17.23
2018-08-16T00:23:31.698Z,17.23
2018-08-16T00:23:36.002Z,17.23
2018-08-16T00:23:39.983Z,17.23
2018-08-16T00:23:44.184Z,17.23
2018-08-16T00:23:48.499Z,17.24
2018-08-16T00:23:52.692Z,17.24
2018-08-16T00:23:56.998Z,17.23
2018-08-16T00:24:01.093Z,17.23
2018-08-16T00:24:05.182Z,17.23
2018-08-16T00:24:09.483Z,17.23
2018-08-16T00:24:13.789Z,17.22
2018-08-16T00:24:18.096Z,17.23
2018-08-16T00:24:22.188Z,17.23
2018-08-16T00:24:26.278Z,17.23
2018-08-16T00:24:30.476Z,17.23
2018-08-16T00:24:34.779Z,17.22
2018-08-16T00:24:39.080Z,17.22
2018-08-16T00:24:43.279Z,17.22
2018-08-16T00:24:47.583Z,17.22
2018-08-16T00:24:51.674Z,17.22
2018-08-16T00:24:55.972Z,17.21
2018-08-16T00:25:00.173Z,17.21
2018-08-16T00:25:04.376Z,17.2
2018-08-16T00:25:08.580Z,17.2
2018-08-16T00:25:12.893Z,17.21
2018-08-16T00:25:17.193Z,17.21
2018-08-16T00:25:21.403Z,17.2
2018-08-16T00:25:25.605Z,17.2
2018-08-16T00:25:29.797Z,17.2
2018-08-16T00:25:34.000Z,17.19
2018-08-16T00:25:38.312Z,17.19
2018-08-16T00:25:42.616Z,17.2
2018-08-16T00:25:46.811Z,17.19
2018-08-16T00:25:50.908Z,17.19
2018-08-16T00:25:55.218Z,17.19
2018-08-16T00:25:59.525Z,17.19
2018-08-16T00:26:03.615Z,17.19
2018-08-16T00:26:07.815Z,17.19
2018-08-16T00:26:12.012Z,17.18
2018-08-16T00:26:16.104Z,17.18
2018-08-16T00:26:20.201Z,17.17
2018-08-16T00:26:24.507Z,17.18
2018-08-16T00:26:28.707Z,17.17
2018-08-16T00:26:32.899Z,17.18
2018-08-16T00:26:37.101Z,17.18
2018-08-16T00:26:41.293Z,17.17
2018-08-16T00:26:45.507Z,17.17
2018-08-16T00:26:49.704Z,17.17
2018-08-16T00:26:53.800Z,17.17
2018-08-16T00:26:57.996Z,17.17
2018-08-16T00:27:02.342Z,17.17
2018-08-16T00:27:06.434Z,17.17
2018-08-16T00:27:10.636Z,17.17
2018-08-16T00:27:14.940Z,17.16
2018-08-16T00:27:19.137Z,17.16
2018-08-16T00:27:23.229Z,17.16
2018-08-16T00:27:27.105Z,17.16
2018-08-16T00:27:31.405Z,17.15
2018-08-16T00:27:35.604Z,17.16
2018-08-16T00:27:39.904Z,17.16
2018-08-16T00:27:44.215Z,17.15
2018-08-16T00:27:48.424Z,17.16
2018-08-16T00:27:52.626Z,17.16
2018-08-16T00:27:56.932Z,17.16
2018-08-16T00:28:01.232Z,17.15
2018-08-16T00:28:05.319Z,17.15
2018-08-16T00:28:09.416Z,17.15
2018-08-16T00:28:13.723Z,17.16
2018-08-16T00:28:17.818Z,17.14
2018-08-16T00:28:22.010Z,17.15
2018-08-16T00:28:26.207Z,17.15
2018-08-16T00:28:30.403Z,17.15
2018-08-16T00:28:34.494Z,17.15
2018-08-16T00:28:38.795Z,17.15
2018-08-16T00:28:43.000Z,17.14
2018-08-16T00:28:47.311Z,17.15
2018-08-16T00:28:51.614Z,17.14
2018-08-16T00:28:55.810Z,17.14
2018-08-16T00:29:00.114Z,17.15
2018-08-16T00:29:04.103Z,17.14
2018-08-16T00:29:08.188Z,17.13
2018-08-16T00:29:12.185Z,17.14
2018-08-16T00:29:16.389Z,17.13
2018-08-16T00:29:20.589Z,17.13
2018-08-16T00:29:24.894Z,17.13
2018-08-16T00:29:29.093Z,17.14
2018-08-16T00:29:33.398Z,17.14
2018-08-16T00:29:37.738Z,17.13
2018-08-16T00:29:41.843Z,17.13
2018-08-16T00:29:46.145Z,17.12
2018-08-16T00:29:50.346Z,17.12
2018-08-16T00:29:54.657Z,17.12
2018-08-16T00:29:58.859Z,17.12
2018-08-16T00:30:03.069Z,17.12
2018-08-16T00:30:07.157Z,17.12
2018-08-16T00:30:11.248Z,17.12
2018-08-16T00:30:15.121Z,17.1
2018-08-16T00:30:19.208Z,17.11
2018-08-16T00:30:23.519Z,17.11
2018-08-16T00:30:27.719Z,17.11
2018-08-16T00:30:31.918Z,17.11
2018-08-16T00:30:36.229Z,17.1
2018-08-16T00:30:40.533Z,17.1
2018-08-16T00:30:44.635Z,17.09
2018-08-16T00:30:48.829Z,17.1
2018-08-16T00:30:53.032Z,17.09
2018-08-16T00:30:57.227Z,17.09
2018-08-16T00:31:01.423Z,17.09
2018-08-16T00:31:05.510Z,17.09
2018-08-16T00:31:09.814Z,17.08
2018-08-16T00:31:14.009Z,17.08
2018-08-16T00:31:18.219Z,17.08
2018-08-16T00:31:22.424Z,17.08
2018-08-16T00:31:26.521Z,17.08
2018-08-16T00:31:30.609Z,17.07
2018-08-16T00:31:34.913Z,17.07
2018-08-16T00:31:39.111Z,17.07
2018-08-16T00:31:43.306Z,17.07
2018-08-16T00:31:47.608Z,17.06
2018-08-16T00:31:51.801Z,17.06
2018-08-16T00:31:56.114Z,17.06
2018-08-16T00:32:00.100Z,17.06
2018-08-16T00:32:04.086Z,17.07
2018-08-16T00:32:08.283Z,17.06
2018-08-16T00:32:12.508Z,17.05
2018-08-16T00:32:16.592Z,17.06
2018-08-16T00:32:20.684Z,17.06
2018-08-16T00:32:24.772Z,17.05
2018-08-16T00:32:28.967Z,17.05
2018-08-16T00:32:33.162Z,17.06
2018-08-16T00:32:37.361Z,17.05
2018-08-16T00:32:41.660Z,17.04
2018-08-16T00:32:45.854Z,17.04
2018-08-16T00:32:50.058Z,17.04
2018-08-16T00:32:54.256Z,17.04
2018-08-16T00:32:58.461Z,17.04
2018-08-16T00:33:02.556Z,17.04
2018-08-16T00:33:06.775Z,17.03
2018-08-16T00:33:10.865Z,17.03
2018-08-16T00:33:15.066Z,17.03
2018-08-16T00:33:19.268Z,17.03
2018-08-16T00:33:23.355Z,17.03
2018-08-16T00:33:27.441Z,17.02
2018-08-16T00:33:31.528Z,17.03
2018-08-16T00:33:35.720Z,17.02
2018-08-16T00:33:39.920Z,17.03
2018-08-16T00:33:44.117Z,17.02
2018-08-16T00:33:48.415Z,17.03
2018-08-16T00:33:52.719Z,17.02
2018-08-16T00:33:56.915Z,17.02
2018-08-16T00:34:01.215Z,17.02
2018-08-16T00:34:05.307Z,17.01
2018-08-16T00:34:09.509Z,17.01
2018-08-16T00:34:13.810Z,17.01
2018-08-16T00:34:17.908Z,17.02
2018-08-16T00:34:22.105Z,17.01
2018-08-16T00:34:26.206Z,17.01
2018-08-16T00:34:30.516Z,17
2018-08-16T00:34:34.502Z,17.01
2018-08-16T00:34:38.603Z,16.99
2018-08-16T00:34:42.799Z,17
2018-08-16T00:34:46.998Z,17
2018-08-16T00:34:51.198Z,17
2018-08-16T00:34:55.295Z,17
2018-08-16T00:34:59.497Z,17
2018-08-16T00:35:03.491Z,17
2018-08-16T00:35:07.688Z,17
2018-08-16T00:35:11.989Z,16.99
2018-08-16T00:35:16.289Z,16.99
2018-08-16T00:35:20.488Z,16.99
2018-08-16T00:35:24.685Z,16.99
2018-08-16T00:35:28.875Z,16.99
2018-08-16T00:35:33.189Z,16.98
2018-08-16T00:35:37.538Z,16.98
2018-08-16T00:35:41.727Z,16.98
2018-08-16T00:35:45.821Z,16.97
2018-08-16T00:35:50.017Z,16.98
2018-08-16T00:35:54.209Z,16.98
2018-08-16T00:35:58.517Z,16.97
2018-08-16T00:36:02.498Z,16.96
2018-08-16T00:36:06.494Z,16.97
2018-08-16T00:36:10.577Z,16.97
2018-08-16T00:36:14.671Z,16.96
2018-08-16T00:36:18.870Z,16.97
2018-08-16T00:36:23.169Z,16.96
2018-08-16T00:36:27.162Z,16.96
2018-08-16T00:36:31.361Z,16.96
2018-08-16T00:36:35.346Z,16.96
2018-08-16T00:36:39.650Z,16.96
2018-08-16T00:36:43.848Z,16.96
2018-08-16T00:36:47.945Z,16.95
2018-08-16T00:36:52.032Z,16.96
2018-08-16T00:36:56.121Z,16.95
2018-08-16T00:37:00.416Z,16.96
2018-08-16T00:37:04.508Z,16.95
2018-08-16T00:37:08.591Z,16.95
2018-08-16T00:37:12.572Z,16.95
2018-08-16T00:37:16.778Z,16.94
2018-08-16T00:37:20.980Z,16.95
2018-08-16T00:37:25.334Z,16.93
2018-08-16T00:37:29.529Z,16.94
2018-08-16T00:37:33.510Z,16.93
2018-08-16T00:37:37.714Z,16.94
2018-08-16T00:37:41.811Z,16.94
2018-08-16T00:37:46.137Z,16.93
2018-08-16T00:37:50.464Z,16.93
2018-08-16T00:37:54.661Z,16.92
2018-08-16T00:37:58.855Z,16.93
2018-08-16T00:38:02.839Z,16.92
2018-08-16T00:38:06.929Z,16.92
2018-08-16T00:38:11.034Z,16.92
2018-08-16T00:38:15.235Z,16.91
2018-08-16T00:38:19.430Z,16.92
2018-08-16T00:38:23.744Z,16.91
2018-08-16T00:38:27.841Z,16.91
2018-08-16T00:38:32.031Z,16.91
2018-08-16T00:38:36.231Z,16.9
2018-08-16T00:38:40.425Z,16.92
2018-08-16T00:38:44.523Z,16.9
2018-08-16T00:38:48.718Z,16.9
2018-08-16T00:38:52.919Z,16.91
2018-08-16T00:38:57.116Z,16.9
2018-08-16T00:39:01.312Z,16.9
2018-08-16T00:39:05.404Z,16.9
2018-08-16T00:39:09.717Z,16.9
2018-08-16T00:39:13.918Z,16.9
2018-08-16T00:39:18.222Z,16.89
2018-08-16T00:39:22.521Z,16.9
2018-08-16T00:39:26.718Z,16.9
2018-08-16T00:39:30.915Z,16.88
2018-08-16T00:39:35.005Z,16.88
2018-08-16T00:39:39.200Z,16.89
2018-08-16T00:39:43.507Z,16.88
2018-08-16T00:39:47.709Z,16.88
2018-08-16T00:39:52.017Z,16.88
2018-08-16T00:39:56.320Z,16.88
2018-08-16T00:40:00.627Z,16.88
2018-08-16T00:40:04.614Z,16.88
2018-08-16T00:40:08.598Z,16.87
2018-08-16T00:40:12.807Z,16.87
2018-08-16T00:40:17.124Z,16.87
2018-08-16T00:40:21.322Z,16.87
2018-08-16T00:40:25.418Z,16.87
2018-08-16T00:40:29.739Z,16.87
2018-08-16T00:40:33.831Z,16.87
2018-08-16T00:40:38.130Z,16.87
2018-08-16T00:40:42.441Z,16.87
2018-08-16T00:40:46.786Z,16.88
2018-08-16T00:40:50.878Z,16.87
2018-08-16T00:40:55.181Z,16.87
2018-08-16T00:40:59.486Z,16.86
2018-08-16T00:41:03.692Z,16.86
2018-08-16T00:41:07.887Z,16.87
2018-08-16T00:41:12.197Z,16.87
2018-08-16T00:41:16.295Z,16.87
2018-08-16T00:41:20.501Z,16.87
2018-08-16T00:41:24.702Z,16.87
2018-08-16T00:41:29.013Z,16.87
2018-08-16T00:41:33.213Z,16.87
2018-08-16T00:41:37.521Z,16.87
2018-08-16T00:41:41.720Z,16.86
2018-08-16T00:41:46.027Z,16.87
2018-08-16T00:41:50.330Z,16.86
2018-08-16T00:41:54.522Z,16.87
2018-08-16T00:41:58.714Z,16.87
2018-08-16T00:42:02.918Z,16.87
2018-08-16T00:42:07.016Z,16.88
2018-08-16T00:42:11.109Z,16.87
2018-08-16T00:42:15.207Z,16.88
2018-08-16T00:42:19.407Z,16.87
2018-08-16T00:42:23.500Z,16.87
2018-08-16T00:42:27.816Z,16.87
2018-08-16T00:42:32.117Z,16.87
2018-08-16T00:42:36.206Z,16.88
2018-08-16T00:42:40.519Z,16.87
2018-08-16T00:42:44.837Z,16.87
2018-08-16T00:42:49.039Z,16.87
2018-08-16T00:42:53.128Z,16.87
2018-08-16T00:42:57.443Z,16.87
2018-08-16T00:43:01.744Z,16.87
2018-08-16T00:43:05.842Z,16.87
2018-08-16T00:43:10.040Z,16.88
2018-08-16T00:43:14.349Z,16.88
2018-08-16T00:43:18.551Z,16.88
2018-08-16T00:43:22.757Z,16.87
2018-08-16T00:43:26.891Z,16.88
2018-08-16T00:43:31.194Z,16.88
2018-08-16T00:43:35.398Z,16.87
2018-08-16T00:43:39.601Z,16.88
2018-08-16T00:43:43.792Z,16.88
2018-08-16T00:43:47.995Z,16.87
2018-08-16T00:43:52.356Z,16.88
2018-08-16T00:43:56.569Z,16.88
2018-08-16T00:44:00.878Z,16.88
2018-08-16T00:44:04.967Z,16.89
2018-08-16T00:44:08.948Z,16.88
2018-08-16T00:44:13.145Z,16.88
2018-08-16T00:44:17.351Z,16.89
2018-08-16T00:44:21.555Z,16.88
2018-08-16T00:44:25.748Z,16.89
2018-08-16T00:44:30.049Z,16.89
2018-08-16T00:44:34.404Z,16.89
2018-08-16T00:44:38.386Z,16.9
2018-08-16T00:44:42.594Z,16.9
2018-08-16T00:44:46.787Z,16.9
2018-08-16T00:44:51.091Z,16.89
2018-08-16T00:44:55.312Z,16.89
2018-08-16T00:44:59.510Z,16.89
2018-08-16T00:45:03.496Z,16.89
2018-08-16T00:45:07.694Z,16.9
2018-08-16T00:45:12.012Z,16.89
2018-08-16T00:45:16.327Z,16.9
2018-08-16T00:45:20.633Z,16.9
2018-08-16T00:45:24.835Z,16.89
2018-08-16T00:45:29.028Z,16.9
2018-08-16T00:45:33.223Z,16.9
2018-08-16T00:45:37.531Z,16.91
2018-08-16T00:45:41.740Z,16.9
2018-08-16T00:45:46.039Z,16.91
2018-08-16T00:45:50.347Z,16.9
2018-08-16T00:45:54.553Z,16.9
2018-08-16T00:45:58.742Z,16.9
2018-08-16T00:46:02.843Z,16.91
2018-08-16T00:46:06.953Z,16.9
2018-08-16T00:46:11.250Z,16.9
2018-08-16T00:46:15.442Z,16.9
2018-08-16T00:46:19.646Z,16.9
2018-08-16T00:46:23.741Z,16.91
2018-08-16T00:46:27.936Z,16.9
2018-08-16T00:46:32.024Z,16.91
2018-08-16T00:46:36.219Z,16.92
2018-08-16T00:46:40.522Z,16.91
2018-08-16T00:46:44.715Z,16.91
2018-08-16T00:46:48.800Z,16.91
2018-08-16T00:46:52.890Z,16.92
2018-08-16T00:46:57.095Z,16.91
2018-08-16T00:47:01.286Z,16.92
2018-08-16T00:47:05.270Z,16.92
2018-08-16T00:47:09.364Z,16.91
2018-08-16T00:47:13.676Z,16.92
2018-08-16T00:47:17.979Z,16.91
2018-08-16T00:47:21.965Z,16.92
2018-08-16T00:47:26.168Z,16.92
2018-08-16T00:47:30.257Z,16.92
2018-08-16T00:47:34.451Z,16.91
2018-08-16T00:47:38.756Z,16.93
2018-08-16T00:47:43.064Z,16.92
2018-08-16T00:47:47.365Z,16.93
2018-08-16T00:47:51.667Z,16.92
2018-08-16T00:47:55.865Z,16.92
2018-08-16T00:48:00.062Z,16.93
2018-08-16T00:48:04.261Z,16.93
2018-08-16T00:48:08.460Z,16.93
2018-08-16T00:48:12.553Z,16.93
2018-08-16T00:48:16.644Z,16.93
2018-08-16T00:48:20.732Z,16.93
2018-08-16T00:48:24.931Z,16.93
2018-08-16T00:48:29.242Z,16.93
2018-08-16T00:48:33.434Z,16.93
2018-08-16T00:48:37.548Z,16.93
2018-08-16T00:48:41.742Z,16.93
2018-08-16T00:48:45.939Z,16.93
2018-08-16T00:48:50.032Z,16.94
2018-08-16T00:48:54.333Z,16.94
2018-08-16T00:48:58.535Z,16.93
2018-08-16T00:49:02.637Z,16.94
2018-08-16T00:49:06.773Z,16.94
2018-08-16T00:49:10.891Z,16.95
2018-08-16T00:49:15.113Z,16.94
2018-08-16T00:49:19.336Z,16.94
2018-08-16T00:49:23.566Z,16.94
2018-08-16T00:49:27.792Z,16.94
2018-08-16T00:49:32.006Z,16.95
2018-08-16T00:49:36.335Z,16.95
2018-08-16T00:49:40.477Z,16.94
2018-08-16T00:49:44.386Z,16.95
2018-08-16T00:49:48.616Z,16.95
2018-08-16T00:49:52.958Z,16.95
2018-08-16T00:49:57.172Z,16.95
2018-08-16T00:50:01.421Z,16.95
2018-08-16T00:50:05.301Z,16.95
2018-08-16T00:50:09.504Z,16.95
2018-08-16T00:50:13.819Z,16.96
2018-08-16T00:50:18.120Z,16.95
2018-08-16T00:50:22.209Z,16.95
2018-08-16T00:50:26.406Z,16.96
2018-08-16T00:50:30.704Z,16.95
2018-08-16T00:50:35.007Z,16.96
2018-08-16T00:50:39.204Z,16.96
2018-08-16T00:50:43.509Z,16.96
2018-08-16T00:50:47.860Z,16.96
2018-08-16T00:50:52.061Z,16.96
2018-08-16T00:50:56.262Z,16.97
2018-08-16T00:51:00.565Z,16.96
2018-08-16T00:51:04.547Z,16.96
2018-08-16T00:51:08.630Z,16.96
2018-08-16T00:51:12.823Z,16.96
2018-08-16T00:51:16.918Z,16.95
2018-08-16T00:51:21.114Z,16.96
2018-08-16T00:51:25.206Z,16.96
2018-08-16T00:51:29.416Z,16.96
2018-08-16T00:51:33.505Z,16.96
2018-08-16T00:51:37.605Z,16.96
2018-08-16T00:51:41.909Z,16.96
2018-08-16T00:51:46.103Z,16.96
2018-08-16T00:51:50.307Z,16.96
2018-08-16T00:51:54.403Z,16.95
2018-08-16T00:51:58.704Z,16.96
2018-08-16T00:52:02.685Z,16.95
2018-08-16T00:52:06.990Z,16.96
2018-08-16T00:52:11.096Z,16.96
2018-08-16T00:52:15.398Z,16.96
2018-08-16T00:52:19.592Z,16.96
2018-08-16T00:52:23.791Z,16.96
2018-08-16T00:52:27.988Z,16.95
2018-08-16T00:52:32.181Z,16.96
2018-08-16T00:52:36.374Z,16.95
2018-08-16T00:52:40.585Z,16.96
2018-08-16T00:52:44.774Z,16.95
2018-08-16T00:52:48.969Z,16.96
2018-08-16T00:52:53.370Z,16.95
2018-08-16T00:52:57.370Z,16.96
2018-08-16T00:53:01.673Z,16.95
2018-08-16T00:53:05.442Z,16.95
2018-08-16T00:53:09.643Z,16.94
2018-08-16T00:53:13.743Z,16.95
2018-08-16T00:53:17.938Z,16.95
2018-08-16T00:53:22.245Z,16.95
2018-08-16T00:53:26.234Z,16.95
2018-08-16T00:53:30.226Z,16.95
2018-08-16T00:53:34.579Z,16.95
2018-08-16T00:53:38.775Z,16.95
2018-08-16T00:53:43.080Z,16.94
2018-08-16T00:53:47.275Z,16.95
2018-08-16T00:53:51.368Z,16.94
2018-08-16T00:53:55.569Z,16.94
2018-08-16T00:53:59.875Z,16.95
2018-08-16T00:54:03.857Z,16.94
2018-08-16T00:54:08.066Z,16.94
2018-08-16T00:54:12.161Z,16.94